createdAt,value
2023-02-23T00:01:48.410Z,100.00
2023-02-23T00:04:37.055Z,100.00
2023-02-23T00:07:27.059Z,100.00
2023-02-23T00:10:18.293Z,100.00
2023-02-23T00:13:06.727Z,100.00
2023-02-23T00:15:56.543Z,100.00
2023-02-23T00:18:48.307Z,100.00
2023-02-23T00:21:37.083Z,100.00
2023-02-23T00:24:26.933Z,100.00
2023-02-23T00:27:19.887Z,100.00
2023-02-23T00:30:09.886Z,100.00
2023-02-23T00:32:59.736Z,100.00
2023-02-23T00:35:48.179Z,100.00
2023-02-23T00:38:37.264Z,100.00
2023-02-23T00:41:28.607Z,100.00
2023-02-23T00:44:17.205Z,100.00
2023-02-23T00:47:05.742Z,100.00
2023-02-23T00:49:55.567Z,100.00
2023-02-23T00:52:44.781Z,100.00
2023-02-23T00:55:33.302Z,100.00
2023-02-23T00:58:21.804Z,100.00
2023-02-23T01:01:12.027Z,100.00
2023-02-23T01:04:00.553Z,100.00
2023-02-23T01:06:50.422Z,100.00
2023-02-23T01:09:38.920Z,100.00
2023-02-23T01:12:27.364Z,100.00
2023-02-23T01:15:16.317Z,100.00
2023-02-23T01:18:04.893Z,100.00
2023-02-23T01:20:53.567Z,100.00
2023-02-23T01:23:43.439Z,100.00
2023-02-23T01:26:34.151Z,100.00
2023-02-23T01:29:22.661Z,100.00
2023-02-23T01:32:11.215Z,100.00
2023-02-23T01:34:59.744Z,100.00
2023-02-23T01:37:51.119Z,100.00
2023-02-23T01:40:44.016Z,100.00
2023-02-23T01:43:32.497Z,100.00
2023-02-23T01:46:21.077Z,100.00
2023-02-23T01:49:12.228Z,100.00
2023-02-23T01:52:04.769Z,100.00
2023-02-23T01:54:54.948Z,100.00
2023-02-23T01:57:44.953Z,100.00
2023-02-23T02:00:36.667Z,100.00
2023-02-23T02:03:29.705Z,100.00
2023-02-23T02:06:19.679Z,100.00
2023-02-23T02:09:15.918Z,100.00
2023-02-23T02:12:08.369Z,100.00
2023-02-23T02:14:59.558Z,100.00
2023-02-23T02:17:56.463Z,100.00
2023-02-23T02:21:11.487Z,100.00
2023-02-23T02:24:56.345Z,100.00
2023-02-23T02:28:08.840Z,100.00
2023-02-23T02:31:19.807Z,100.00
2023-02-23T02:34:28.582Z,100.00
2023-02-23T02:37:39.309Z,100.00
2023-02-23T02:40:29.853Z,100.00
2023-02-23T02:43:24.469Z,100.00
2023-02-23T02:46:17.438Z,100.00
2023-02-23T02:49:10.240Z,100.00
2023-02-23T02:52:02.569Z,100.00
2023-02-23T02:54:54.525Z,100.00
2023-02-23T02:57:46.686Z,100.00
2023-02-23T03:00:55.980Z,100.00
2023-02-23T03:04:03.382Z,100.00
2023-02-23T03:07:15.590Z,100.00
2023-02-23T03:10:27.697Z,100.00
2023-02-23T03:13:37.776Z,100.00
2023-02-23T03:16:50.234Z,100.00
2023-02-23T03:20:01.659Z,100.00
2023-02-23T03:23:14.487Z,100.00
2023-02-23T03:26:26.890Z,100.00
2023-02-23T03:29:36.998Z,100.00
2023-02-23T03:32:45.524Z,100.00
2023-02-23T03:35:55.736Z,100.00
2023-02-23T03:39:04.891Z,100.00
2023-02-23T03:42:12.966Z,100.00
2023-02-23T03:45:24.190Z,100.00
2023-02-23T03:48:31.231Z,100.00
2023-02-23T03:51:38.229Z,100.00
2023-02-23T03:54:47.775Z,100.00
2023-02-23T03:57:56.400Z,100.00
2023-02-23T04:01:04.568Z,100.00
2023-02-23T04:04:11.706Z,100.00
2023-02-23T04:07:19.993Z,100.00
2023-02-23T04:10:27.739Z,100.00
2023-02-23T04:13:18.680Z,100.00
2023-02-23T04:16:07.718Z,100.00
2023-02-23T04:18:56.307Z,100.00
2023-02-23T04:21:44.902Z,100.00
2023-02-23T04:24:33.392Z,100.00
2023-02-23T04:27:22.095Z,100.00
2023-02-23T04:30:13.319Z,100.00
2023-02-23T04:33:01.820Z,100.00
2023-02-23T04:35:50.557Z,100.00
2023-02-23T04:38:39.070Z,100.00
2023-02-23T04:41:27.600Z,100.00
2023-02-23T04:44:16.097Z,100.00
2023-02-23T04:47:05.988Z,100.00
2023-02-23T04:49:54.520Z,100.00
2023-02-23T04:52:43.286Z,100.00
2023-02-23T04:55:32.814Z,100.00
2023-02-23T04:58:21.588Z,100.00
2023-02-23T05:01:10.635Z,100.00
2023-02-23T05:04:00.548Z,100.00
2023-02-23T05:06:48.957Z,100.00
2023-02-23T05:09:37.396Z,100.00
2023-02-23T05:12:25.951Z,100.00
2023-02-23T05:15:17.133Z,100.00
2023-02-23T05:18:05.724Z,100.00
2023-02-23T05:21:02.988Z,100.00
2023-02-23T05:23:51.483Z,100.00
2023-02-23T05:26:39.888Z,100.00
2023-02-23T05:29:28.411Z,100.00
2023-02-23T05:32:17.495Z,100.00
2023-02-23T05:35:07.208Z,100.00
2023-02-23T05:37:57.232Z,100.00
2023-02-23T05:40:45.766Z,100.00
2023-02-23T05:43:34.415Z,100.00
2023-02-23T05:46:25.137Z,100.00
2023-02-23T05:49:13.789Z,100.00
2023-02-23T05:52:02.310Z,100.00
2023-02-23T05:54:52.326Z,100.00
2023-02-23T05:57:41.094Z,100.00
2023-02-23T06:00:29.946Z,100.00
2023-02-23T06:03:18.593Z,100.00
2023-02-23T06:06:07.491Z,100.00
2023-02-23T06:08:56.132Z,100.00
2023-02-23T06:11:46.052Z,100.00
2023-02-23T06:14:35.730Z,100.00
2023-02-23T06:17:24.210Z,100.00
2023-02-23T06:20:14.722Z,100.00
2023-02-23T06:23:03.232Z,100.00
2023-02-23T06:25:51.693Z,100.00
2023-02-23T06:28:41.513Z,100.00
2023-02-23T06:31:30.454Z,100.00
2023-02-23T06:34:19.047Z,100.00
2023-02-23T06:37:09.230Z,100.00
2023-02-23T06:39:57.991Z,100.00
2023-02-23T06:42:46.685Z,100.00
2023-02-23T06:45:36.466Z,100.00
2023-02-23T06:48:24.976Z,100.00
2023-02-23T06:51:13.457Z,100.00
2023-02-23T06:54:01.964Z,100.00
2023-02-23T06:56:51.152Z,100.00
2023-02-23T06:59:39.675Z,100.00
2023-02-23T07:02:29.547Z,100.00
2023-02-23T07:05:18.279Z,100.00
2023-02-23T07:08:07.085Z,100.00
2023-02-23T07:10:57.691Z,100.00
2023-02-23T07:13:46.203Z,100.00
2023-02-23T07:16:34.694Z,100.00
2023-02-23T07:19:24.505Z,100.00
2023-02-23T07:22:12.955Z,100.00
2023-02-23T07:25:01.446Z,100.00
2023-02-23T07:27:49.967Z,100.00
2023-02-23T07:41:34.623Z,100.00
2023-02-23T07:44:23.361Z,100.00
2023-02-23T07:47:12.256Z,100.00
2023-02-23T07:50:03.432Z,100.00
2023-02-23T07:52:52.360Z,100.00
2023-02-23T07:55:40.966Z,100.00
2023-02-23T07:58:31.618Z,100.00
2023-02-23T08:01:20.487Z,100.00
2023-02-23T08:04:09.202Z,100.00
2023-02-23T08:06:57.703Z,100.00
2023-02-23T08:09:46.151Z,100.00
2023-02-23T08:12:34.866Z,100.00
2023-02-23T08:15:25.035Z,100.00
2023-02-23T08:18:13.501Z,100.00
2023-02-23T08:21:02.882Z,100.00
2023-02-23T08:23:51.535Z,100.00
2023-02-23T08:26:40.155Z,100.00
2023-02-23T08:29:28.696Z,100.00
2023-02-23T08:32:18.600Z,100.00
2023-02-23T08:35:08.299Z,100.00
2023-02-23T08:37:58.384Z,100.00
2023-02-23T08:40:46.913Z,100.00
2023-02-23T08:43:35.415Z,100.00
2023-02-23T08:46:23.943Z,100.00
2023-02-23T08:49:13.807Z,100.00
2023-02-23T08:52:02.275Z,100.00
2023-02-23T08:54:50.770Z,100.00
2023-02-23T08:57:39.369Z,100.00
2023-02-23T09:00:28.054Z,100.00
2023-02-23T09:03:16.571Z,100.00
2023-02-23T09:06:10.066Z,100.00
2023-02-23T09:08:58.661Z,100.00
2023-02-23T09:11:47.530Z,100.00
2023-02-23T09:14:36.668Z,100.00
2023-02-23T09:17:26.334Z,100.00
2023-02-23T09:20:16.026Z,100.00
2023-02-23T09:23:05.975Z,100.00
2023-02-23T09:25:54.565Z,100.00
2023-02-23T09:28:43.235Z,99.31
2023-02-23T09:31:31.757Z,97.33
2023-02-23T09:34:20.365Z,96.23
2023-02-23T09:37:08.852Z,94.70
2023-02-23T09:39:58.711Z,93.69
2023-02-23T09:42:53.539Z,94.10
2023-02-23T09:45:43.790Z,93.06
2023-02-23T09:48:32.578Z,91.13
2023-02-23T09:51:22.650Z,90.87
2023-02-23T09:54:12.709Z,89.18
2023-02-23T09:57:04.889Z,87.01
2023-02-23T09:59:53.371Z,90.45
2023-02-23T10:02:53.009Z,91.27
2023-02-23T10:05:44.689Z,90.03
2023-02-23T10:08:45.288Z,88.42
2023-02-23T10:11:40.343Z,86.17
2023-02-23T10:14:50.808Z,84.98
2023-02-23T10:17:42.139Z,85.52
2023-02-23T10:20:36.385Z,85.09
2023-02-23T10:23:31.427Z,85.29
2023-02-23T10:26:23.241Z,83.71
2023-02-23T10:29:22.322Z,83.19
2023-02-23T10:32:22.486Z,80.89
2023-02-23T10:35:13.042Z,79.00
2023-02-23T10:38:02.396Z,78.91
2023-02-23T10:40:52.235Z,80.47
2023-02-23T10:43:40.880Z,81.39
2023-02-23T10:46:35.800Z,80.47
2023-02-23T10:49:30.337Z,80.24
2023-02-23T10:52:21.811Z,81.00
2023-02-23T10:55:22.674Z,81.10
2023-02-23T10:58:16.875Z,82.37
2023-02-23T11:01:06.444Z,85.30
2023-02-23T11:04:05.461Z,84.61
2023-02-23T11:07:08.203Z,85.88
2023-02-23T11:09:57.405Z,85.97
2023-02-23T11:12:45.878Z,85.91
2023-02-23T11:15:49.968Z,87.48
2023-02-23T11:18:40.936Z,89.57
2023-02-23T11:21:33.315Z,89.21
2023-02-23T11:24:25.902Z,88.61
2023-02-23T11:27:23.016Z,87.63
2023-02-23T11:30:13.589Z,87.93
2023-02-23T11:33:10.921Z,86.21
2023-02-23T11:36:00.612Z,87.28
2023-02-23T11:38:49.135Z,87.37
2023-02-23T11:41:38.978Z,87.06
2023-02-23T11:44:27.794Z,86.85
2023-02-23T11:47:19.303Z,87.09
2023-02-23T11:50:08.998Z,87.04
2023-02-23T11:53:02.361Z,88.52
2023-02-23T11:55:54.795Z,89.72
2023-02-23T11:58:46.966Z,90.50
2023-02-23T12:01:44.009Z,90.58
2023-02-23T12:04:37.016Z,89.63
2023-02-23T12:07:37.439Z,90.45
2023-02-23T12:10:29.056Z,90.02
2023-02-23T12:13:24.551Z,92.20
2023-02-23T12:16:19.843Z,95.05
2023-02-23T12:19:21.787Z,95.78
2023-02-23T12:22:13.270Z,95.81
2023-02-23T12:25:05.050Z,96.44
2023-02-23T12:28:03.182Z,93.83
2023-02-23T12:31:02.321Z,91.48
2023-02-23T12:33:55.752Z,91.47
2023-02-23T12:36:46.667Z,91.57
2023-02-23T12:39:37.809Z,93.23
2023-02-23T12:42:32.071Z,91.51
2023-02-23T12:45:25.482Z,89.20
2023-02-23T12:48:21.068Z,91.35
2023-02-23T12:51:19.149Z,88.47
2023-02-23T12:54:10.267Z,86.87
2023-02-23T12:57:05.754Z,85.99
2023-02-23T13:00:24.025Z,84.07
2023-02-23T13:03:51.571Z,84.60
2023-02-23T13:06:49.249Z,83.31
2023-02-23T13:09:45.070Z,82.63
2023-02-23T13:12:42.948Z,81.55
2023-02-23T13:15:47.873Z,83.05
2023-02-23T13:18:39.863Z,80.68
2023-02-23T13:21:31.774Z,81.30
2023-02-23T13:24:24.660Z,83.26
2023-02-23T13:27:16.335Z,83.47
2023-02-23T13:30:05.957Z,83.47
2023-02-23T13:32:55.442Z,83.59
2023-02-23T13:35:44.170Z,84.01
2023-02-23T13:38:36.869Z,83.87
2023-02-23T13:41:34.253Z,83.75
2023-02-23T13:44:28.296Z,83.88
2023-02-23T13:47:20.670Z,83.30
2023-02-23T13:50:22.577Z,81.89
2023-02-23T13:53:29.609Z,81.97
2023-02-23T13:56:18.966Z,82.29
2023-02-23T13:59:15.576Z,83.15
2023-02-23T14:02:23.797Z,82.02
2023-02-23T14:05:19.777Z,82.49
2023-02-23T14:08:08.683Z,81.58
2023-02-23T14:10:57.465Z,82.41
2023-02-23T14:14:00.143Z,82.59
2023-02-23T14:17:21.962Z,82.27
2023-02-23T14:20:43.623Z,82.77
2023-02-23T14:23:50.869Z,81.46
2023-02-23T14:26:43.136Z,81.74
2023-02-23T14:29:32.887Z,80.05
2023-02-23T14:32:30.499Z,80.85
2023-02-23T14:35:48.783Z,82.19
2023-02-23T14:38:47.854Z,82.44
2023-02-23T14:41:42.813Z,83.33
2023-02-23T14:44:32.284Z,83.54
2023-02-23T14:47:22.311Z,82.58
2023-02-23T14:50:16.107Z,83.37
2023-02-23T14:53:09.543Z,84.56
2023-02-23T14:55:59.785Z,84.33
2023-02-23T14:58:51.889Z,85.32
2023-02-23T15:01:41.087Z,84.49
2023-02-23T15:04:31.445Z,84.70
2023-02-23T15:07:25.185Z,84.97
2023-02-23T15:10:19.797Z,84.25
2023-02-23T15:13:12.838Z,85.24
2023-02-23T15:16:04.992Z,85.30
2023-02-23T15:18:53.618Z,83.62
2023-02-23T15:21:42.110Z,84.08
2023-02-23T15:24:34.120Z,84.74
2023-02-23T15:27:26.852Z,86.31
2023-02-23T15:30:21.631Z,87.01
2023-02-23T15:33:12.782Z,86.91
2023-02-23T15:36:06.966Z,87.36
2023-02-23T15:38:57.240Z,87.33
2023-02-23T15:41:48.330Z,88.10
2023-02-23T15:44:44.462Z,88.63
2023-02-23T15:47:35.813Z,88.42
2023-02-23T15:50:36.227Z,87.82
2023-02-23T15:53:30.008Z,87.60
2023-02-23T15:56:24.237Z,88.25
2023-02-23T15:59:16.708Z,88.41
2023-02-23T16:02:16.668Z,88.05
2023-02-23T16:05:14.982Z,87.90
2023-02-23T16:08:06.282Z,88.73
2023-02-23T16:10:59.205Z,89.32
2023-02-23T16:13:48.006Z,90.10
2023-02-23T16:16:36.708Z,90.44
2023-02-23T16:19:27.354Z,90.50
2023-02-23T16:22:21.947Z,90.35
2023-02-23T16:25:13.859Z,90.77
2023-02-23T16:28:04.158Z,91.44
2023-02-23T16:30:59.466Z,92.40
2023-02-23T16:33:54.646Z,92.30
2023-02-23T16:36:48.972Z,93.37
2023-02-23T16:39:37.596Z,94.10
2023-02-23T16:42:29.457Z,94.90
2023-02-23T16:45:18.814Z,94.75
2023-02-23T16:48:11.493Z,96.12
2023-02-23T16:51:00.146Z,97.46
2023-02-23T16:53:52.489Z,98.70
2023-02-23T16:56:41.114Z,100.00
2023-02-23T16:59:31.265Z,100.00
2023-02-23T17:02:22.706Z,100.00
2023-02-23T17:05:13.560Z,100.00
2023-02-23T17:08:03.032Z,100.00
2023-02-23T17:10:54.197Z,100.00
2023-02-23T17:13:42.687Z,100.00
2023-02-23T17:16:31.207Z,100.00
2023-02-23T17:19:20.388Z,100.00
2023-02-23T17:22:09.176Z,100.00
2023-02-23T17:24:57.667Z,100.00
2023-02-23T17:27:47.648Z,100.00
2023-02-23T17:30:36.965Z,100.00
2023-02-23T17:33:27.076Z,100.00
2023-02-23T17:36:17.794Z,100.00
2023-02-23T17:39:09.405Z,100.00
2023-02-23T17:41:58.053Z,100.00
2023-02-23T17:44:47.841Z,100.00
2023-02-23T17:47:38.510Z,100.00
2023-02-23T17:50:27.997Z,100.00
2023-02-23T17:53:16.465Z,100.00
2023-02-23T17:56:05.816Z,100.00
2023-02-23T17:58:54.352Z,100.00
2023-02-23T18:01:45.609Z,100.00
2023-02-23T18:04:35.786Z,100.00
2023-02-23T18:07:24.403Z,100.00
2023-02-23T18:10:14.633Z,100.00
2023-02-23T18:13:03.576Z,100.00
2023-02-23T18:15:53.074Z,100.00
2023-02-23T18:18:45.998Z,100.00
2023-02-23T18:21:39.181Z,100.00
2023-02-23T18:24:31.047Z,100.00
2023-02-23T18:27:20.000Z,100.00
2023-02-23T18:30:10.215Z,100.00
2023-02-23T18:33:00.765Z,100.00
2023-02-23T18:35:51.043Z,100.00
2023-02-23T18:38:39.711Z,100.00
2023-02-23T18:41:31.128Z,100.00
2023-02-23T18:44:21.765Z,100.00
2023-02-23T18:47:11.052Z,100.00
2023-02-23T18:50:01.628Z,100.00
2023-02-23T18:52:51.725Z,100.00
2023-02-23T18:55:40.960Z,100.00
2023-02-23T18:58:29.517Z,100.00
2023-02-23T19:01:26.691Z,100.00
2023-02-23T19:04:15.381Z,100.00
2023-02-23T19:07:03.856Z,100.00
2023-02-23T19:09:53.745Z,100.00
2023-02-23T19:12:43.692Z,100.00
2023-02-23T19:15:32.197Z,100.00
2023-02-23T19:18:20.738Z,100.00
2023-02-23T19:21:09.322Z,100.00
2023-02-23T19:23:59.583Z,100.00
2023-02-23T19:26:49.417Z,100.00
2023-02-23T19:29:38.286Z,100.00
2023-02-23T19:32:27.079Z,100.00
2023-02-23T19:35:16.058Z,100.00
2023-02-23T19:38:04.582Z,100.00
2023-02-23T19:40:53.615Z,100.00
2023-02-23T19:43:43.547Z,100.00
2023-02-23T19:46:32.101Z,100.00
2023-02-23T19:49:20.675Z,100.00
2023-02-23T19:52:09.195Z,100.00
2023-02-23T19:54:57.737Z,100.00
2023-02-23T19:57:46.342Z,100.00
2023-02-23T20:00:36.382Z,100.00
2023-02-23T20:03:28.183Z,100.00
2023-02-23T20:06:18.115Z,100.00
2023-02-23T20:09:07.429Z,100.00
2023-02-23T20:11:56.514Z,100.00
2023-02-23T20:14:45.005Z,100.00
2023-02-23T20:17:35.365Z,100.00
2023-02-23T20:20:25.829Z,100.00
2023-02-23T20:23:14.392Z,100.00
2023-02-23T20:26:05.353Z,100.00
2023-02-23T20:28:54.352Z,100.00
2023-02-23T20:31:50.514Z,100.00
2023-02-23T20:34:40.730Z,100.00
2023-02-23T20:37:29.604Z,100.00
2023-02-23T20:40:18.566Z,100.00
2023-02-23T20:43:07.233Z,100.00
2023-02-23T20:45:57.314Z,100.00
2023-02-23T20:48:45.976Z,100.00
2023-02-23T20:51:35.876Z,100.00
2023-02-23T20:54:24.446Z,100.00
2023-02-23T20:57:13.053Z,100.00
2023-02-23T21:00:09.567Z,100.00
2023-02-23T21:02:58.284Z,100.00
2023-02-23T21:05:48.560Z,100.00
2023-02-23T21:08:39.961Z,100.00
2023-02-23T21:11:28.567Z,100.00
2023-02-23T21:14:17.251Z,100.00
2023-02-23T21:17:05.891Z,100.00
2023-02-23T21:19:54.401Z,100.00
2023-02-23T21:22:42.894Z,100.00
2023-02-23T21:25:33.176Z,100.00
2023-02-23T21:28:21.890Z,100.00
2023-02-23T21:31:12.589Z,100.00
2023-02-23T21:34:05.449Z,100.00
2023-02-23T21:36:54.135Z,100.00
2023-02-23T21:39:43.011Z,100.00
2023-02-23T21:42:33.071Z,100.00
2023-02-23T21:45:21.696Z,100.00
2023-02-23T21:48:10.583Z,100.00
2023-02-23T21:51:03.702Z,100.00
2023-02-23T21:53:52.763Z,100.00
2023-02-23T21:56:41.297Z,100.00
2023-02-23T21:59:31.204Z,100.00
2023-02-23T22:02:20.160Z,100.00
2023-02-23T22:05:09.485Z,100.00
2023-02-23T22:07:57.989Z,100.00
2023-02-23T22:10:46.960Z,100.00
2023-02-23T22:13:36.012Z,100.00
2023-02-23T22:16:27.488Z,100.00
2023-02-23T22:19:16.585Z,100.00
2023-02-23T22:22:05.170Z,100.00
2023-02-23T22:24:53.624Z,100.00
2023-02-23T22:27:43.737Z,100.00
2023-02-23T22:30:32.233Z,100.00
2023-02-23T22:33:22.946Z,100.00
2023-02-23T22:36:13.953Z,100.00
2023-02-23T22:39:02.995Z,100.00
2023-02-23T22:41:51.450Z,100.00
2023-02-23T22:44:41.138Z,100.00
2023-02-23T22:47:29.696Z,100.00
2023-02-23T22:50:20.209Z,100.00
2023-02-23T22:53:09.035Z,100.00
2023-02-23T22:55:58.016Z,100.00
2023-02-23T22:58:49.746Z,100.00
2023-02-23T23:01:40.005Z,100.00
2023-02-23T23:04:28.595Z,100.00
2023-02-23T23:07:20.060Z,100.00
2023-02-23T23:10:11.983Z,100.00
2023-02-23T23:13:01.634Z,100.00
2023-02-23T23:15:51.766Z,100.00
2023-02-23T23:18:42.823Z,100.00
2023-02-23T23:21:32.739Z,100.00
2023-02-23T23:24:22.921Z,100.00
2023-02-23T23:27:11.610Z,100.00
2023-02-23T23:30:00.013Z,100.00
2023-02-23T23:32:48.671Z,100.00
2023-02-23T23:35:38.046Z,100.00
2023-02-23T23:38:26.523Z,100.00
2023-02-23T23:41:16.790Z,100.00
2023-02-23T23:44:05.823Z,100.00
2023-02-23T23:46:54.311Z,100.00
2023-02-23T23:49:42.816Z,100.00
2023-02-23T23:52:38.884Z,100.00
2023-02-23T23:55:31.028Z,100.00
2023-02-23T23:58:21.848Z,100.00
